Time;durP1;ratioP1;P1;durP2;ratioP2;P2;SDS_P1;SDS_P2;PMS_P1;PMS_P2;Temp;Humidity;BMP_temperature;BMP_pressure;BME280_temperature;BME280_humidity;BME280_pressure;Samples;Min_cycle;Max_cycle;Signal;HPM_P1;HPM_P2
2022/03/26 01:31:00;;;;;;;61.75;31.55;;;5.30;99.90;;;;;;6210344;22;20036;-73
2022/03/26 01:33:27;;;;;;;62.40;31.63;;;5.30;99.90;;;;;;6218646;23;20005;-73
2022/03/26 01:35:54;;;;;;;64.38;31.23;;;5.30;99.90;;;;;;6218802;23;20036;-72
2022/03/26 01:38:20;;;;;;;64.00;31.23;;;5.20;99.90;;;;;;6218576;23;20012;-71
2022/03/26 01:40:49;;;;;;;64.63;33.15;;;5.20;99.90;;;;;;6218871;23;20061;-73
2022/03/26 01:43:16;;;;;;;67.10;32.85;;;5.20;99.90;;;;;;6194068;23;20020;-73
2022/03/26 01:45:42;;;;;;;68.03;34.53;;;5.20;99.90;;;;;;6218816;23;19996;-71
2022/03/26 01:48:09;;;;;;;66.60;33.90;;;5.20;99.90;;;;;;6193755;23;20072;-72
2022/03/26 01:50:35;;;;;;;67.72;35.05;;;5.20;99.90;;;;;;6194154;23;20027;-72
2022/03/26 01:53:02;;;;;;;75.95;37.28;;;5.20;99.90;;;;;;6218546;23;20051;-71
2022/03/26 01:55:29;;;;;;;66.80;33.83;;;5.20;99.90;;;;;;6218635;23;20005;-73
2022/03/26 01:57:55;;;;;;;70.90;35.50;;;5.10;99.90;;;;;;6194075;23;20020;-73
2022/03/26 02:00:24;;;;;;;72.70;35.88;;;5.10;99.90;;;;;;6218817;23;20023;-72
2022/03/26 02:02:54;;;;;;;72.63;35.97;;;5.10;99.90;;;;;;6194831;23;20023;-73
2022/03/26 02:05:21;;;;;;;68.40;35.53;;;5.10;99.90;;;;;;6194119;23;20007;-72
2022/03/26 02:07:49;;;;;;;65.93;35.55;;;5.10;99.90;;;;;;6193691;23;20012;-73
2022/03/26 02:10:24;;;;;;;69.85;35.08;;;5.10;99.90;;;;;;6193567;23;20024;-72
2022/03/26 02:12:50;;;;;;;65.80;35.42;;;5.00;99.90;;;;;;6193995;23;19997;-72
2022/03/26 02:15:17;;;;;;;71.50;35.90;;;5.00;99.90;;;;;;6218520;23;20027;-73
2022/03/26 02:17:44;;;;;;;69.65;36.25;;;5.00;99.90;;;;;;6193772;23;20000;-72
2022/03/26 02:20:12;;;;;;;68.55;35.40;;;5.00;99.90;;;;;;6193136;23;20087;-72
2022/03/26 02:22:39;;;;;;;73.70;36.35;;;4.90;99.90;;;;;;6218529;23;20000;-71
2022/03/26 02:25:07;;;;;;;73.47;36.08;;;4.90;99.90;;;;;;6193031;23;20028;-71
2022/03/26 02:27:35;;;;;;;76.95;38.70;;;4.90;99.90;;;;;;6218875;23;19996;-73
2022/03/26 04:15:39;;;;;;;69.70;34.17;;;4.00;99.90;;;;;;6243287;22;20024;-72
2022/03/26 04:18:09;;;;;;;68.47;33.40;;;4.00;99.90;;;;;;6217245;23;20027;-72
2022/03/26 04:20:35;;;;;;;69.38;34.47;;;4.00;99.90;;;;;;6242602;23;20001;-72
2022/03/26 04:23:02;;;;;;;70.25;33.78;;;4.00;99.90;;;;;;6241915;23;19997;-71
2022/03/26 04:25:29;;;;;;;72.85;35.20;;;4.00;99.90;;;;;;6217290;23;20096;-72
2022/03/26 04:27:55;;;;;;;74.03;34.90;;;4.00;99.90;;;;;;6241940;23;20000;-72
2022/03/26 04:30:21;;;;;;;74.60;35.65;;;4.00;99.90;;;;;;6216932;23;20030;-72
2022/03/26 04:32:48;;;;;;;74.10;35.45;;;4.00;99.90;;;;;;6242742;23;20088;-75
2022/03/26 04:35:15;;;;;;;72.20;35.20;;;4.00;99.90;;;;;;6216712;23;20043;-73
2022/03/26 04:37:44;;;;;;;72.50;36.47;;;4.00;99.90;;;;;;6217178;23;20021;-73
2022/03/26 04:40:13;;;;;;;76.35;37.33;;;3.90;99.90;;;;;;6242112;23;20052;-72
2022/03/26 04:42:41;;;;;;;80.30;37.95;;;3.90;99.90;;;;;;6192628;23;20068;-72
2022/03/26 04:45:09;;;;;;;81.35;38.97;;;3.90;99.90;;;;;;6216795;23;20001;-73
2022/03/26 04:47:40;;;;;;;71.65;36.33;;;3.80;99.90;;;;;;6192655;23;20032;-74
2022/03/26 04:50:07;;;;;;;75.65;36.92;;;3.80;99.90;;;;;;6192105;23;20024;-72
2022/03/26 04:52:34;;;;;;;76.68;36.47;;;3.80;99.90;;;;;;6216752;23;20016;-73
2022/03/26 04:55:09;;;;;;;81.00;37.63;;;3.70;99.90;;;;;;6191779;23;20024;-71
2022/03/26 04:57:51;;;;;;;71.70;35.95;;;3.80;99.90;;;;;;6189523;23;20021;-73
2022/03/26 05:00:31;;;;;;;74.80;36.90;;;3.80;99.90;;;;;;6191101;23;20072;-73
2022/03/26 05:02:58;;;;;;;79.68;36.80;;;3.80;99.90;;;;;;6192149;23;20034;-72
2022/03/26 05:05:24;;;;;;;75.35;37.33;;;3.70;99.90;;;;;;6192214;23;20047;-73
2022/03/26 05:07:52;;;;;;;82.90;38.13;;;3.80;99.90;;;;;;6167694;23;20000;-73
2022/03/26 05:10:21;;;;;;;73.93;36.10;;;3.80;99.90;;;;;;6191596;23;20000;-72
2022/03/26 05:12:49;;;;;;;78.40;37.08;;;3.80;99.90;;;;;;6192392;23;20036;-72
2022/03/26 05:15:18;;;;;;;77.80;37.60;;;3.80;99.90;;;;;;6191916;23;20016;-72
2022/03/26 05:17:45;;;;;;;77.80;36.42;;;3.70;99.90;;;;;;6217131;23;20004;-74
2022/03/26 05:20:12;;;;;;;70.85;34.42;;;3.70;99.90;;;;;;6191973;23;20007;-72
2022/03/26 05:22:45;;;;;;;69.82;34.17;;;3.70;99.90;;;;;;6192009;23;20024;-72
2022/03/26 05:25:12;;;;;;;69.50;33.70;;;3.70;99.90;;;;;;6217087;23;20000;-73
2022/03/26 05:27:43;;;;;;;67.22;32.45;;;3.70;99.90;;;;;;6218285;23;20092;-73
2022/03/26 05:30:12;;;;;;;69.47;32.70;;;3.60;99.90;;;;;;6169787;23;20016;-73
2022/03/26 05:32:39;;;;;;;59.90;31.33;;;3.60;99.90;;;;;;6218716;23;20019;-72
2022/03/26 05:35:11;;;;;;;58.38;29.90;;;3.50;99.90;;;;;;6218256;23;20000;-72
2022/03/26 05:37:38;;;;;;;71.85;31.98;;;3.60;99.90;;;;;;6218935;23;20024;-71
2022/03/26 07:21:59;;;;;;;174.32;75.40;;;6.10;99.90;;;;;;6209578;23;20005;-74
2022/03/26 07:24:26;;;;;;;171.35;71.82;;;6.30;99.90;;;;;;6188025;23;20052;-72
2022/03/26 07:26:52;;;;;;;153.82;66.03;;;6.40;99.90;;;;;;6212940;23;20069;-72
2022/03/26 07:29:22;;;;;;;159.38;69.07;;;6.70;99.90;;;;;;6213127;23;20008;-72
2022/03/26 07:31:49;;;;;;;160.60;69.35;;;6.90;99.90;;;;;;6213260;23;20053;-71
2022/03/26 07:34:16;;;;;;;153.73;63.85;;;7.10;99.90;;;;;;6213035;23;20067;-71
2022/03/26 07:36:43;;;;;;;149.73;64.30;;;7.20;99.90;;;;;;6213653;23;20004;-74
2022/03/26 07:39:10;;;;;;;152.10;64.53;;;7.50;99.90;;;;;;6213094;23;20001;-73
2022/03/26 07:41:36;;;;;;;153.73;64.72;;;7.60;99.90;;;;;;6188587;23;20005;-74
2022/03/26 07:44:03;;;;;;;144.65;63.47;;;7.90;99.90;;;;;;6213527;23;20001;-75
2022/03/26 07:46:33;;;;;;;158.30;66.55;;;8.00;99.90;;;;;;6164392;23;20001;-74
2022/03/26 07:49:00;;;;;;;154.57;66.03;;;8.30;99.90;;;;;;6188182;23;20021;-73
